sensor_id;sensor_type;location;lat;lon;timestamp;P1;durP1;ratioP1;P2;durP2;ratioP2
23590;SDS011;11973;52.098;7.582;2023-05-07T04:00:45;22.58;;;20.23;;
23590;SDS011;11973;52.098;7.582;2023-05-07T04:03:25;23.88;;;21.30;;
23590;SDS011;11973;52.098;7.582;2023-05-07T04:05:51;23.70;;;21.20;;
23590;SDS011;11973;52.098;7.582;2023-05-07T04:08:18;23.33;;;20.77;;
23590;SDS011;11973;52.098;7.582;2023-05-07T04:10:46;24.02;;;20.77;;
23590;SDS011;11973;52.098;7.582;2023-05-07T04:13:12;23.48;;;20.98;;
23590;SDS011;11973;52.098;7.582;2023-05-07T04:15:38;23.25;;;20.75;;
23590;SDS011;11973;52.098;7.582;2023-05-07T04:18:08;23.92;;;21.42;;
23590;SDS011;11973;52.098;7.582;2023-05-07T04:20:34;23.08;;;20.60;;
23590;SDS011;11973;52.098;7.582;2023-05-07T04:23:03;23.35;;;20.92;;
23590;SDS011;11973;52.098;7.582;2023-05-07T04:25:29;22.65;;;20.25;;
23590;SDS011;11973;52.098;7.582;2023-05-07T04:28:02;23.58;;;21.08;;
23590;SDS011;11973;52.098;7.582;2023-05-07T04:30:29;23.92;;;21.42;;
23590;SDS011;11973;52.098;7.582;2023-05-07T04:32:55;24.77;;;20.92;;
23590;SDS011;11973;52.098;7.582;2023-05-07T04:35:26;23.02;;;20.55;;
23590;SDS011;11973;52.098;7.582;2023-05-07T04:37:52;23.92;;;21.55;;
23590;SDS011;11973;52.098;7.582;2023-05-07T04:40:18;24.13;;;21.48;;
23590;SDS011;11973;52.098;7.582;2023-05-07T04:42:44;24.20;;;21.60;;
23590;SDS011;11973;52.098;7.582;2023-05-07T04:45:11;24.52;;;21.63;;
23590;SDS011;11973;52.098;7.582;2023-05-07T04:47:39;23.85;;;21.45;;
23590;SDS011;11973;52.098;7.582;2023-05-07T04:50:08;23.50;;;21.17;;
23590;SDS011;11973;52.098;7.582;2023-05-07T04:52:35;24.65;;;21.85;;
23590;SDS011;11973;52.098;7.582;2023-05-07T04:55:02;23.75;;;21.20;;
23590;SDS011;11973;52.098;7.582;2023-05-07T04:57:33;23.08;;;20.77;;
23590;SDS011;11973;52.098;7.582;2023-05-07T04:59:59;24.05;;;21.30;;
23590;SDS011;11973;52.098;7.582;2023-05-07T05:02:25;23.48;;;21.08;;
23590;SDS011;11973;52.098;7.582;2023-05-07T05:05:03;24.40;;;21.80;;
23590;SDS011;11973;52.098;7.582;2023-05-07T05:07:30;24.23;;;21.73;;
23590;SDS011;11973;52.098;7.582;2023-05-07T05:09:55;24.42;;;20.65;;
23590;SDS011;11973;52.098;7.582;2023-05-07T05:12:23;24.10;;;21.60;;
23590;SDS011;11973;52.098;7.582;2023-05-07T05:14:49;25.17;;;21.60;;
23590;SDS011;11973;52.098;7.582;2023-05-07T05:17:15;24.15;;;21.60;;
23590;SDS011;11973;52.098;7.582;2023-05-07T05:19:40;24.30;;;21.75;;
23590;SDS011;11973;52.098;7.582;2023-05-07T05:22:06;25.02;;;22.27;;
23590;SDS011;11973;52.098;7.582;2023-05-07T05:24:32;22.88;;;20.55;;
23590;SDS011;11973;52.098;7.582;2023-05-07T05:26:58;24.00;;;21.42;;
23590;SDS011;11973;52.098;7.582;2023-05-07T05:29:29;23.67;;;21.10;;
23590;SDS011;11973;52.098;7.582;2023-05-07T05:31:57;23.73;;;21.33;;
23590;SDS011;11973;52.098;7.582;2023-05-07T05:34:23;23.77;;;20.38;;
23590;SDS011;11973;52.098;7.582;2023-05-07T05:36:50;22.45;;;20.23;;
23590;SDS011;11973;52.098;7.582;2023-05-07T05:39:19;22.67;;;20.27;;
23590;SDS011;11973;52.098;7.582;2023-05-07T05:41:46;23.10;;;20.58;;
23590;SDS011;11973;52.098;7.582;2023-05-07T05:44:13;23.65;;;20.35;;
23590;SDS011;11973;52.098;7.582;2023-05-07T05:46:40;24.45;;;19.88;;
23590;SDS011;11973;52.098;7.582;2023-05-07T05:49:06;21.15;;;18.98;;
23590;SDS011;11973;52.098;7.582;2023-05-07T05:51:32;21.92;;;19.63;;
23590;SDS011;11973;52.098;7.582;2023-05-07T05:53:59;22.17;;;20.00;;
23590;SDS011;11973;52.098;7.582;2023-05-07T05:56:25;22.50;;;19.17;;
23590;SDS011;11973;52.098;7.582;2023-05-07T05:58:51;22.15;;;19.90;;
23590;SDS011;11973;52.098;7.582;2023-05-07T06:01:17;21.55;;;19.55;;
23590;SDS011;11973;52.098;7.582;2023-05-07T06:03:44;22.02;;;19.65;;
23590;SDS011;11973;52.098;7.582;2023-05-07T06:06:13;22.38;;;20.17;;
23590;SDS011;11973;52.098;7.582;2023-05-07T06:08:42;22.48;;;20.05;;
23590;SDS011;11973;52.098;7.582;2023-05-07T06:11:09;21.67;;;19.60;;
23590;SDS011;11973;52.098;7.582;2023-05-07T06:13:38;21.90;;;19.70;;
23590;SDS011;11973;52.098;7.582;2023-05-07T06:16:04;20.90;;;18.80;;
23590;SDS011;11973;52.098;7.582;2023-05-07T06:18:30;21.70;;;19.40;;
23590;SDS011;11973;52.098;7.582;2023-05-07T06:20:56;20.85;;;18.73;;
23590;SDS011;11973;52.098;7.582;2023-05-07T06:23:26;21.35;;;19.20;;
23590;SDS011;11973;52.098;7.582;2023-05-07T06:25:52;21.52;;;19.33;;
23590;SDS011;11973;52.098;7.582;2023-05-07T06:28:21;21.25;;;19.15;;
23590;SDS011;11973;52.098;7.582;2023-05-07T06:30:48;21.08;;;18.98;;
23590;SDS011;11973;52.098;7.582;2023-05-07T06:33:16;21.08;;;19.02;;
23590;SDS011;11973;52.098;7.582;2023-05-07T06:35:42;21.10;;;18.80;;
23590;SDS011;11973;52.098;7.582;2023-05-07T06:38:07;21.45;;;19.25;;
23590;SDS011;11973;52.098;7.582;2023-05-07T06:40:33;20.70;;;18.70;;
23590;SDS011;11973;52.098;7.582;2023-05-07T06:42:59;21.48;;;19.48;;
23590;SDS011;11973;52.098;7.582;2023-05-07T06:45:39;20.95;;;18.73;;
23590;SDS011;11973;52.098;7.582;2023-05-07T06:48:07;21.70;;;18.90;;
23590;SDS011;11973;52.098;7.582;2023-05-07T06:50:41;20.42;;;18.20;;
23590;SDS011;11973;52.098;7.582;2023-05-07T06:53:07;20.02;;;18.17;;
23590;SDS011;11973;52.098;7.582;2023-05-07T06:55:33;19.67;;;17.88;;
23590;SDS011;11973;52.098;7.582;2023-05-07T06:58:00;20.23;;;18.13;;
23590;SDS011;11973;52.098;7.582;2023-05-07T07:00:27;19.80;;;17.80;;
23590;SDS011;11973;52.098;7.582;2023-05-07T07:02:54;21.33;;;19.10;;
23590;SDS011;11973;52.098;7.582;2023-05-07T07:05:23;20.73;;;18.83;;
23590;SDS011;11973;52.098;7.582;2023-05-07T07:07:50;20.17;;;18.20;;
23590;SDS011;11973;52.098;7.582;2023-05-07T07:10:21;19.35;;;17.35;;
23590;SDS011;11973;52.098;7.582;2023-05-07T07:12:48;20.35;;;18.30;;
23590;SDS011;11973;52.098;7.582;2023-05-07T07:15:15;21.00;;;18.40;;
23590;SDS011;11973;52.098;7.582;2023-05-07T07:17:41;19.45;;;17.70;;
23590;SDS011;11973;52.098;7.582;2023-05-07T07:20:07;20.13;;;18.02;;
23590;SDS011;11973;52.098;7.582;2023-05-07T07:22:34;20.65;;;18.63;;
23590;SDS011;11973;52.098;7.582;2023-05-07T07:25:00;19.98;;;18.13;;
23590;SDS011;11973;52.098;7.582;2023-05-07T07:27:25;20.45;;;18.38;;
23590;SDS011;11973;52.098;7.582;2023-05-07T07:29:51;21.52;;;18.55;;
23590;SDS011;11973;52.098;7.582;2023-05-07T07:32:17;20.60;;;18.63;;
23590;SDS011;11973;52.098;7.582;2023-05-07T07:34:44;19.40;;;17.58;;
23590;SDS011;11973;52.098;7.582;2023-05-07T07:37:11;20.27;;;18.27;;
23590;SDS011;11973;52.098;7.582;2023-05-07T07:39:37;20.65;;;18.60;;
23590;SDS011;11973;52.098;7.582;2023-05-07T07:42:04;21.00;;;18.95;;
23590;SDS011;11973;52.098;7.582;2023-05-07T07:44:30;20.17;;;18.33;;
23590;SDS011;11973;52.098;7.582;2023-05-07T07:47:01;19.98;;;17.98;;
23590;SDS011;11973;52.098;7.582;2023-05-07T07:49:27;19.73;;;17.80;;
23590;SDS011;11973;52.098;7.582;2023-05-07T07:51:54;19.63;;;17.58;;
23590;SDS011;11973;52.098;7.582;2023-05-07T07:54:21;19.63;;;17.67;;
23590;SDS011;11973;52.098;7.582;2023-05-07T07:56:47;19.63;;;17.30;;
23590;SDS011;11973;52.098;7.582;2023-05-07T07:59:14;19.08;;;17.27;;
23590;SDS011;11973;52.098;7.582;2023-05-07T08:01:43;19.38;;;17.55;;
23590;SDS011;11973;52.098;7.582;2023-05-07T08:04:09;19.83;;;17.50;;
23590;SDS011;11973;52.098;7.582;2023-05-07T08:06:38;18.85;;;17.02;;
23590;SDS011;11973;52.098;7.582;2023-05-07T08:09:04;19.80;;;17.80;;
23590;SDS011;11973;52.098;7.582;2023-05-07T08:11:30;21.88;;;17.38;;
23590;SDS011;11973;52.098;7.582;2023-05-07T08:13:57;18.85;;;16.95;;
23590;SDS011;11973;52.098;7.582;2023-05-07T08:16:23;18.70;;;16.70;;
23590;SDS011;11973;52.098;7.582;2023-05-07T08:18:51;19.15;;;17.35;;
23590;SDS011;11973;52.098;7.582;2023-05-07T08:21:17;18.30;;;16.60;;
23590;SDS011;11973;52.098;7.582;2023-05-07T08:23:43;18.63;;;16.95;;
23590;SDS011;11973;52.098;7.582;2023-05-07T08:26:08;19.58;;;17.50;;
23590;SDS011;11973;52.098;7.582;2023-05-07T08:28:35;19.75;;;17.35;;
23590;SDS011;11973;52.098;7.582;2023-05-07T08:31:01;18.33;;;16.73;;
23590;SDS011;11973;52.098;7.582;2023-05-07T08:33:30;18.50;;;16.77;;
23590;SDS011;11973;52.098;7.582;2023-05-07T08:35:56;19.13;;;17.35;;
23590;SDS011;11973;52.098;7.582;2023-05-07T08:38:22;18.02;;;16.17;;
23590;SDS011;11973;52.098;7.582;2023-05-07T08:40:47;18.83;;;16.85;;
23590;SDS011;11973;52.098;7.582;2023-05-07T08:43:17;18.88;;;17.17;;
23590;SDS011;11973;52.098;7.582;2023-05-07T08:45:45;18.55;;;16.75;;
23590;SDS011;11973;52.098;7.582;2023-05-07T08:48:16;17.95;;;16.35;;
23590;SDS011;11973;52.098;7.582;2023-05-07T08:50:53;18.52;;;16.80;;
23590;SDS011;11973;52.098;7.582;2023-05-07T08:53:19;17.95;;;16.23;;
23590;SDS011;11973;52.098;7.582;2023-05-07T08:55:46;18.38;;;16.58;;
23590;SDS011;11973;52.098;7.582;2023-05-07T08:58:13;17.95;;;16.00;;
23590;SDS011;11973;52.098;7.582;2023-05-07T09:00:39;18.00;;;16.27;;
23590;SDS011;11973;52.098;7.582;2023-05-07T09:03:06;17.45;;;15.88;;
23590;SDS011;11973;52.098;7.582;2023-05-07T09:05:33;20.05;;;16.50;;
23590;SDS011;11973;52.098;7.582;2023-05-07T09:07:59;17.98;;;16.23;;
23590;SDS011;11973;52.098;7.582;2023-05-07T09:10:29;17.65;;;16.00;;
23590;SDS011;11973;52.098;7.582;2023-05-07T09:12:55;18.00;;;16.20;;
23590;SDS011;11973;52.098;7.582;2023-05-07T09:15:20;17.65;;;15.85;;
23590;SDS011;11973;52.098;7.582;2023-05-07T09:17:46;16.55;;;15.02;;
23590;SDS011;11973;52.098;7.582;2023-05-07T09:20:12;16.88;;;15.32;;
23590;SDS011;11973;52.098;7.582;2023-05-07T09:22:39;17.20;;;15.55;;
23590;SDS011;11973;52.098;7.582;2023-05-07T09:25:09;17.20;;;15.63;;
23590;SDS011;11973;52.098;7.582;2023-05-07T09:27:36;17.77;;;16.20;;
23590;SDS011;11973;52.098;7.582;2023-05-07T09:30:03;18.10;;;16.30;;
23590;SDS011;11973;52.098;7.582;2023-05-07T09:32:34;17.98;;;16.17;;
23590;SDS011;11973;52.098;7.582;2023-05-07T09:35:03;16.95;;;15.43;;
23590;SDS011;11973;52.098;7.582;2023-05-07T09:37:30;16.73;;;15.07;;
23590;SDS011;11973;52.098;7.582;2023-05-07T09:39:57;17.17;;;15.57;;
23590;SDS011;11973;52.098;7.582;2023-05-07T09:42:25;16.63;;;15.23;;
23590;SDS011;11973;52.098;7.582;2023-05-07T09:44:58;17.30;;;15.65;;
23590;SDS011;11973;52.098;7.582;2023-05-07T09:47:30;17.67;;;14.93;;
23590;SDS011;11973;52.098;7.582;2023-05-07T09:49:58;16.38;;;14.98;;
23590;SDS011;11973;52.098;7.582;2023-05-07T09:52:27;16.83;;;15.13;;
23590;SDS011;11973;52.098;7.582;2023-05-07T09:55:00;15.48;;;14.07;;
23590;SDS011;11973;52.098;7.582;2023-05-07T09:57:28;15.75;;;14.25;;
23590;SDS011;11973;52.098;7.582;2023-05-07T09:59:59;15.45;;;14.25;;
23590;SDS011;11973;52.098;7.582;2023-05-07T10:02:34;16.35;;;14.73;;
23590;SDS011;11973;52.098;7.582;2023-05-07T10:05:02;14.75;;;13.45;;
23590;SDS011;11973;52.098;7.582;2023-05-07T10:07:30;16.17;;;14.48;;
23590;SDS011;11973;52.098;7.582;2023-05-07T10:10:02;15.90;;;14.40;;
23590;SDS011;11973;52.098;7.582;2023-05-07T10:12:34;16.02;;;14.52;;
23590;SDS011;11973;52.098;7.582;2023-05-07T10:15:06;16.35;;;15.00;;
23590;SDS011;11973;52.098;7.582;2023-05-07T10:17:40;15.88;;;14.38;;
23590;SDS011;11973;52.098;7.582;2023-05-07T10:20:08;15.65;;;14.10;;
23590;SDS011;11973;52.098;7.582;2023-05-07T10:22:46;15.77;;;14.32;;
23590;SDS011;11973;52.098;7.582;2023-05-07T10:25:25;14.90;;;13.70;;
23590;SDS011;11973;52.098;7.582;2023-05-07T10:27:53;14.77;;;13.48;;
23590;SDS011;11973;52.098;7.582;2023-05-07T10:31:08;14.68;;;13.40;;
23590;SDS011;11973;52.098;7.582;2023-05-07T10:33:35;14.55;;;13.35;;
23590;SDS011;11973;52.098;7.582;2023-05-07T10:36:02;15.63;;;14.13;;
23590;SDS011;11973;52.098;7.582;2023-05-07T10:38:31;15.32;;;13.93;;
23590;SDS011;11973;52.098;7.582;2023-05-07T10:40:58;13.75;;;12.32;;
23590;SDS011;11973;52.098;7.582;2023-05-07T10:43:24;13.73;;;12.63;;
23590;SDS011;11973;52.098;7.582;2023-05-07T10:46:13;15.13;;;13.77;;
23590;SDS011;11973;52.098;7.582;2023-05-07T10:51:27;14.65;;;13.35;;
23590;SDS011;11973;52.098;7.582;2023-05-07T10:56:40;13.57;;;12.48;;
23590;SDS011;11973;52.098;7.582;2023-05-07T11:01:59;13.38;;;12.23;;
23590;SDS011;11973;52.098;7.582;2023-05-07T11:04:37;13.02;;;12.00;;
23590;SDS011;11973;52.098;7.582;2023-05-07T11:07:23;14.57;;;12.82;;
23590;SDS011;11973;52.098;7.582;2023-05-07T11:15:11;12.85;;;11.85;;
23590;SDS011;11973;52.098;7.582;2023-05-07T11:20:22;10.85;;;10.18;;
23590;SDS011;11973;52.098;7.582;2023-05-07T11:26:30;11.40;;;10.68;;
23590;SDS011;11973;52.098;7.582;2023-05-07T11:29:10;12.02;;;11.07;;
23590;SDS011;11973;52.098;7.582;2023-05-07T11:31:51;11.68;;;10.80;;
23590;SDS011;11973;52.098;7.582;2023-05-07T11:34:24;12.80;;;11.65;;
23590;SDS011;11973;52.098;7.582;2023-05-07T11:36:53;11.00;;;10.23;;
23590;SDS011;11973;52.098;7.582;2023-05-07T11:39:27;11.20;;;10.38;;
23590;SDS011;11973;52.098;7.582;2023-05-07T11:41:54;10.35;;;9.65;;
23590;SDS011;11973;52.098;7.582;2023-05-07T11:44:20;11.35;;;10.38;;
23590;SDS011;11973;52.098;7.582;2023-05-07T11:46:45;9.43;;;8.88;;
23590;SDS011;11973;52.098;7.582;2023-05-07T11:49:11;11.43;;;10.55;;
23590;SDS011;11973;52.098;7.582;2023-05-07T11:51:37;9.82;;;9.23;;
23590;SDS011;11973;52.098;7.582;2023-05-07T11:54:04;10.40;;;9.80;;
23590;SDS011;11973;52.098;7.582;2023-05-07T11:56:36;10.45;;;9.65;;
23590;SDS011;11973;52.098;7.582;2023-05-07T11:59:03;10.38;;;9.68;;
23590;SDS011;11973;52.098;7.582;2023-05-07T12:01:28;9.63;;;9.13;;
23590;SDS011;11973;52.098;7.582;2023-05-07T12:03:54;11.00;;;10.35;;
23590;SDS011;11973;52.098;7.582;2023-05-07T12:06:20;10.13;;;9.50;;
23590;SDS011;11973;52.098;7.582;2023-05-07T12:08:45;10.30;;;9.43;;
23590;SDS011;11973;52.098;7.582;2023-05-07T12:11:21;8.93;;;8.38;;
23590;SDS011;11973;52.098;7.582;2023-05-07T12:13:48;9.88;;;9.35;;
23590;SDS011;11973;52.098;7.582;2023-05-07T12:16:14;9.32;;;8.85;;
23590;SDS011;11973;52.098;7.582;2023-05-07T12:18:40;8.38;;;7.97;;
23590;SDS011;11973;52.098;7.582;2023-05-07T12:21:07;8.98;;;8.55;;
23590;SDS011;11973;52.098;7.582;2023-05-07T12:23:33;8.38;;;8.02;;
23590;SDS011;11973;52.098;7.582;2023-05-07T12:26:01;8.65;;;8.25;;
23590;SDS011;11973;52.098;7.582;2023-05-07T12:28:29;8.10;;;7.60;;
23590;SDS011;11973;52.098;7.582;2023-05-07T12:30:55;8.40;;;7.80;;
23590;SDS011;11973;52.098;7.582;2023-05-07T12:33:25;8.73;;;8.27;;
23590;SDS011;11973;52.098;7.582;2023-05-07T12:35:54;7.80;;;7.43;;
23590;SDS011;11973;52.098;7.582;2023-05-07T12:38:21;7.15;;;6.95;;
23590;SDS011;11973;52.098;7.582;2023-05-07T12:40:48;6.65;;;6.53;;
23590;SDS011;11973;52.098;7.582;2023-05-07T12:43:19;7.18;;;6.88;;
23590;SDS011;11973;52.098;7.582;2023-05-07T12:45:56;7.10;;;6.85;;
23590;SDS011;11973;52.098;7.582;2023-05-07T12:48:24;5.90;;;5.70;;
23590;SDS011;11973;52.098;7.582;2023-05-07T12:50:55;7.47;;;7.03;;
23590;SDS011;11973;52.098;7.582;2023-05-07T12:53:23;6.95;;;6.72;;
23590;SDS011;11973;52.098;7.582;2023-05-07T12:55:51;6.75;;;6.55;;
23590;SDS011;11973;52.098;7.582;2023-05-07T12:58:19;5.90;;;5.50;;
23590;SDS011;11973;52.098;7.582;2023-05-07T13:00:49;5.18;;;5.18;;
23590;SDS011;11973;52.098;7.582;2023-05-07T13:03:23;6.43;;;6.20;;
23590;SDS011;11973;52.098;7.582;2023-05-07T13:05:52;5.20;;;5.10;;
23590;SDS011;11973;52.098;7.582;2023-05-07T13:08:30;5.80;;;5.45;;
23590;SDS011;11973;52.098;7.582;2023-05-07T13:11:02;6.47;;;6.18;;
23590;SDS011;11973;52.098;7.582;2023-05-07T13:13:32;5.90;;;5.80;;
23590;SDS011;11973;52.098;7.582;2023-05-07T13:15:59;6.07;;;5.88;;
23590;SDS011;11973;52.098;7.582;2023-05-07T13:18:26;6.30;;;6.10;;
23590;SDS011;11973;52.098;7.582;2023-05-07T13:20:52;6.20;;;6.05;;
23590;SDS011;11973;52.098;7.582;2023-05-07T13:23:18;6.60;;;6.40;;
23590;SDS011;11973;52.098;7.582;2023-05-07T13:25:45;6.47;;;6.20;;
23590;SDS011;11973;52.098;7.582;2023-05-07T13:28:10;6.45;;;6.25;;
23590;SDS011;11973;52.098;7.582;2023-05-07T13:30:37;6.05;;;5.95;;
23590;SDS011;11973;52.098;7.582;2023-05-07T13:33:02;6.22;;;5.82;;
23590;SDS011;11973;52.098;7.582;2023-05-07T13:35:28;5.18;;;5.07;;
23590;SDS011;11973;52.098;7.582;2023-05-07T13:37:54;5.20;;;5.10;;
23590;SDS011;11973;52.098;7.582;2023-05-07T13:40:21;6.07;;;5.80;;
23590;SDS011;11973;52.098;7.582;2023-05-07T13:42:47;5.95;;;5.70;;
23590;SDS011;11973;52.098;7.582;2023-05-07T13:45:14;6.25;;;6.05;;
23590;SDS011;11973;52.098;7.582;2023-05-07T13:47:41;6.50;;;6.30;;
23590;SDS011;11973;52.098;7.582;2023-05-07T13:50:07;5.93;;;5.57;;
23590;SDS011;11973;52.098;7.582;2023-05-07T13:52:34;5.50;;;5.40;;
23590;SDS011;11973;52.098;7.582;2023-05-07T13:55:01;6.05;;;5.75;;
23590;SDS011;11973;52.098;7.582;2023-05-07T13:57:26;6.90;;;6.60;;
23590;SDS011;11973;52.098;7.582;2023-05-07T13:59:52;6.60;;;6.30;;
23590;SDS011;11973;52.098;7.582;2023-05-07T14:02:18;7.35;;;7.05;;
23590;SDS011;11973;52.098;7.582;2023-05-07T14:04:43;6.38;;;6.25;;
23590;SDS011;11973;52.098;7.582;2023-05-07T14:07:10;6.18;;;5.65;;
23590;SDS011;11973;52.098;7.582;2023-05-07T14:09:36;6.88;;;6.57;;
23590;SDS011;11973;52.098;7.582;2023-05-07T14:12:01;6.32;;;6.22;;
23590;SDS011;11973;52.098;7.582;2023-05-07T14:14:27;6.40;;;6.15;;
23590;SDS011;11973;52.098;7.582;2023-05-07T14:16:53;5.38;;;5.28;;
23590;SDS011;11973;52.098;7.582;2023-05-07T14:19:18;5.60;;;5.50;;
23590;SDS011;11973;52.098;7.582;2023-05-07T14:21:44;5.28;;;5.20;;
23590;SDS011;11973;52.098;7.582;2023-05-07T14:24:10;6.38;;;5.93;;
23590;SDS011;11973;52.098;7.582;2023-05-07T14:26:36;5.10;;;4.95;;
23590;SDS011;11973;52.098;7.582;2023-05-07T14:29:02;5.40;;;5.35;;
23590;SDS011;11973;52.098;7.582;2023-05-07T14:31:28;5.68;;;5.57;;
23590;SDS011;11973;52.098;7.582;2023-05-07T14:33:54;5.80;;;5.60;;
23590;SDS011;11973;52.098;7.582;2023-05-07T14:36:19;4.80;;;4.80;;
23590;SDS011;11973;52.098;7.582;2023-05-07T14:38:46;4.93;;;4.93;;
23590;SDS011;11973;52.098;7.582;2023-05-07T14:41:12;5.30;;;5.20;;
23590;SDS011;11973;52.098;7.582;2023-05-07T14:43:38;5.03;;;4.85;;
23590;SDS011;11973;52.098;7.582;2023-05-07T14:46:04;5.07;;;5.07;;
23590;SDS011;11973;52.098;7.582;2023-05-07T14:48:29;5.22;;;5.18;;
23590;SDS011;11973;52.098;7.582;2023-05-07T14:50:55;5.50;;;5.03;;
23590;SDS011;11973;52.098;7.582;2023-05-07T14:53:21;5.75;;;5.47;;
23590;SDS011;11973;52.098;7.582;2023-05-07T14:55:47;5.50;;;5.35;;
23590;SDS011;11973;52.098;7.582;2023-05-07T14:58:13;5.28;;;5.15;;
23590;SDS011;11973;52.098;7.582;2023-05-07T15:00:40;4.60;;;4.60;;
23590;SDS011;11973;52.098;7.582;2023-05-07T15:03:06;4.25;;;4.25;;
23590;SDS011;11973;52.098;7.582;2023-05-07T15:05:34;5.07;;;4.90;;
23590;SDS011;11973;52.098;7.582;2023-05-07T15:08:00;4.57;;;4.38;;
23590;SDS011;11973;52.098;7.582;2023-05-07T15:10:27;4.20;;;4.20;;
23590;SDS011;11973;52.098;7.582;2023-05-07T15:12:53;4.72;;;4.63;;
23590;SDS011;11973;52.098;7.582;2023-05-07T15:15:19;4.72;;;4.57;;
23590;SDS011;11973;52.098;7.582;2023-05-07T15:17:44;4.57;;;4.32;;
23590;SDS011;11973;52.098;7.582;2023-05-07T15:20:10;5.45;;;4.30;;
23590;SDS011;11973;52.098;7.582;2023-05-07T15:22:36;4.38;;;4.10;;
23590;SDS011;11973;52.098;7.582;2023-05-07T15:25:02;4.32;;;4.20;;
23590;SDS011;11973;52.098;7.582;2023-05-07T15:27:29;4.78;;;4.45;;
23590;SDS011;11973;52.098;7.582;2023-05-07T15:29:56;4.60;;;4.32;;
23590;SDS011;11973;52.098;7.582;2023-05-07T15:32:22;3.85;;;3.85;;
23590;SDS011;11973;52.098;7.582;2023-05-07T15:34:48;4.43;;;4.30;;
23590;SDS011;11973;52.098;7.582;2023-05-07T15:37:13;4.10;;;4.07;;
23590;SDS011;11973;52.098;7.582;2023-05-07T15:39:39;4.00;;;4.00;;
23590;SDS011;11973;52.098;7.582;2023-05-07T15:42:05;3.78;;;3.67;;
23590;SDS011;11973;52.098;7.582;2023-05-07T15:44:31;3.90;;;3.90;;
23590;SDS011;11973;52.098;7.582;2023-05-07T15:47:00;4.68;;;4.57;;
23590;SDS011;11973;52.098;7.582;2023-05-07T15:49:25;4.25;;;4.25;;
23590;SDS011;11973;52.098;7.582;2023-05-07T15:51:51;4.55;;;4.35;;
23590;SDS011;11973;52.098;7.582;2023-05-07T15:54:19;3.70;;;3.70;;
23590;SDS011;11973;52.098;7.582;2023-05-07T15:56:47;4.20;;;4.20;;
23590;SDS011;11973;52.098;7.582;2023-05-07T15:59:13;4.50;;;4.40;;
23590;SDS011;11973;52.098;7.582;2023-05-07T16:01:40;4.50;;;4.40;;
23590;SDS011;11973;52.098;7.582;2023-05-07T16:04:06;3.75;;;3.65;;
23590;SDS011;11973;52.098;7.582;2023-05-07T16:06:33;4.00;;;4.00;;
23590;SDS011;11973;52.098;7.582;2023-05-07T16:08:59;4.05;;;3.85;;
23590;SDS011;11973;52.098;7.582;2023-05-07T16:11:25;3.90;;;3.90;;
23590;SDS011;11973;52.098;7.582;2023-05-07T16:13:54;3.72;;;3.47;;
23590;SDS011;11973;52.098;7.582;2023-05-07T16:16:20;3.70;;;3.50;;
23590;SDS011;11973;52.098;7.582;2023-05-07T16:18:46;3.33;;;3.25;;
23590;SDS011;11973;52.098;7.582;2023-05-07T16:21:11;4.13;;;3.92;;
23590;SDS011;11973;52.098;7.582;2023-05-07T16:23:37;3.80;;;3.80;;
23590;SDS011;11973;52.098;7.582;2023-05-07T16:26:03;3.97;;;3.97;;
23590;SDS011;11973;52.098;7.582;2023-05-07T16:28:29;3.92;;;3.72;;
23590;SDS011;11973;52.098;7.582;2023-05-07T16:30:55;3.60;;;3.60;;
23590;SDS011;11973;52.098;7.582;2023-05-07T16:33:21;4.00;;;3.72;;
23590;SDS011;11973;52.098;7.582;2023-05-07T16:35:50;3.35;;;3.28;;
23590;SDS011;11973;52.098;7.582;2023-05-07T16:38:16;3.60;;;3.60;;
23590;SDS011;11973;52.098;7.582;2023-05-07T16:40:42;3.42;;;3.42;;
23590;SDS011;11973;52.098;7.582;2023-05-07T16:43:08;4.70;;;4.00;;
23590;SDS011;11973;52.098;7.582;2023-05-07T16:45:34;3.85;;;3.85;;
23590;SDS011;11973;52.098;7.582;2023-05-07T16:48:00;3.90;;;3.90;;
23590;SDS011;11973;52.098;7.582;2023-05-07T16:50:27;4.18;;;4.18;;
23590;SDS011;11973;52.098;7.582;2023-05-07T16:52:53;4.20;;;4.10;;
23590;SDS011;11973;52.098;7.582;2023-05-07T16:55:19;3.72;;;3.72;;
23590;SDS011;11973;52.098;7.582;2023-05-07T16:57:44;4.00;;;3.90;;
23590;SDS011;11973;52.098;7.582;2023-05-07T17:00:10;4.07;;;4.07;;
23590;SDS011;11973;52.098;7.582;2023-05-07T17:02:37;3.80;;;3.70;;
23590;SDS011;11973;52.098;7.582;2023-05-07T17:05:03;4.10;;;4.10;;
23590;SDS011;11973;52.098;7.582;2023-05-07T17:07:32;4.43;;;4.20;;
23590;SDS011;11973;52.098;7.582;2023-05-07T17:09:58;4.25;;;4.25;;
23590;SDS011;11973;52.098;7.582;2023-05-07T17:12:24;4.60;;;4.53;;
23590;SDS011;11973;52.098;7.582;2023-05-07T17:14:50;4.63;;;4.43;;
23590;SDS011;11973;52.098;7.582;2023-05-07T17:17:16;4.45;;;4.35;;
23590;SDS011;11973;52.098;7.582;2023-05-07T17:19:42;4.10;;;4.10;;
23590;SDS011;11973;52.098;7.582;2023-05-07T17:22:08;3.90;;;3.80;;
23590;SDS011;11973;52.098;7.582;2023-05-07T17:24:34;4.22;;;4.22;;
23590;SDS011;11973;52.098;7.582;2023-05-07T17:27:00;4.35;;;4.25;;
23590;SDS011;11973;52.098;7.582;2023-05-07T17:29:26;4.28;;;4.18;;
23590;SDS011;11973;52.098;7.582;2023-05-07T17:31:53;4.30;;;4.20;;
23590;SDS011;11973;52.098;7.582;2023-05-07T17:34:20;4.25;;;4.18;;
23590;SDS011;11973;52.098;7.582;2023-05-07T17:36:46;4.38;;;4.28;;
23590;SDS011;11973;52.098;7.582;2023-05-07T17:39:12;4.57;;;4.47;;
23590;SDS011;11973;52.098;7.582;2023-05-07T17:41:38;4.97;;;4.78;;
23590;SDS011;11973;52.098;7.582;2023-05-07T17:44:04;4.43;;;4.43;;
23590;SDS011;11973;52.098;7.582;2023-05-07T17:46:32;4.57;;;4.57;;
23590;SDS011;11973;52.098;7.582;2023-05-07T17:49:00;4.90;;;4.70;;
23590;SDS011;11973;52.098;7.582;2023-05-07T17:51:25;4.97;;;4.78;;
23590;SDS011;11973;52.098;7.582;2023-05-07T17:53:53;5.07;;;4.97;;
23590;SDS011;11973;52.098;7.582;2023-05-07T17:56:20;4.65;;;4.65;;
23590;SDS011;11973;52.098;7.582;2023-05-07T17:58:46;4.97;;;4.97;;
23590;SDS011;11973;52.098;7.582;2023-05-07T18:01:12;5.50;;;5.35;;
23590;SDS011;11973;52.098;7.582;2023-05-07T18:03:38;6.03;;;5.82;;
23590;SDS011;11973;52.098;7.582;2023-05-07T18:06:04;5.68;;;5.28;;
23590;SDS011;11973;52.098;7.582;2023-05-07T18:08:30;5.07;;;5.00;;
23590;SDS011;11973;52.098;7.582;2023-05-07T18:10:56;5.20;;;5.20;;
23590;SDS011;11973;52.098;7.582;2023-05-07T18:13:22;5.15;;;5.05;;
23590;SDS011;11973;52.098;7.582;2023-05-07T18:15:48;4.93;;;4.82;;
23590;SDS011;11973;52.098;7.582;2023-05-07T18:18:14;5.15;;;5.10;;
23590;SDS011;11973;52.098;7.582;2023-05-07T18:20:40;5.38;;;5.30;;
23590;SDS011;11973;52.098;7.582;2023-05-07T18:23:05;5.22;;;5.10;;
23590;SDS011;11973;52.098;7.582;2023-05-07T18:25:34;5.30;;;5.20;;
23590;SDS011;11973;52.098;7.582;2023-05-07T18:28:01;5.65;;;5.50;;
23590;SDS011;11973;52.098;7.582;2023-05-07T18:30:27;6.07;;;5.95;;
23590;SDS011;11973;52.098;7.582;2023-05-07T18:32:53;5.78;;;5.68;;
23590;SDS011;11973;52.098;7.582;2023-05-07T18:35:19;6.22;;;6.00;;
23590;SDS011;11973;52.098;7.582;2023-05-07T18:37:45;6.07;;;5.97;;
23590;SDS011;11973;52.098;7.582;2023-05-07T18:40:10;6.25;;;6.03;;
23590;SDS011;11973;52.098;7.582;2023-05-07T18:42:37;6.53;;;6.25;;
23590;SDS011;11973;52.098;7.582;2023-05-07T18:45:03;5.88;;;5.68;;
23590;SDS011;11973;52.098;7.582;2023-05-07T18:47:29;6.03;;;5.80;;
23590;SDS011;11973;52.098;7.582;2023-05-07T18:49:56;5.63;;;5.40;;
23590;SDS011;11973;52.098;7.582;2023-05-07T18:52:21;6.13;;;5.93;;
23590;SDS011;11973;52.098;7.582;2023-05-07T18:54:56;7.13;;;6.65;;